Time;durP1;ratioP1;P1;durP2;ratioP2;P2;SDS_P1;SDS_P2;PMS_P1;PMS_P2;Temp;Humidity;BMP_temperature;BMP_pressure;BME280_temperature;BME280_humidity;BME280_pressure;Samples;Min_cycle;Max_cycle;Signal;HPM_P1;HPM_P2
2022/07/25 00:02:05;;;;;;;3.67;3.38;;;24.20;58.90;;;;;;5053123;28;20225;-70
2022/07/25 00:04:30;;;;;;;3.47;3.20;;;24.20;59.50;;;;;;5052421;28;20174;-70
2022/07/25 00:06:56;;;;;;;3.75;3.53;;;24.20;58.80;;;;;;5052597;28;20229;-68
2022/07/25 00:09:21;;;;;;;3.55;3.35;;;24.20;58.90;;;;;;5052565;28;20280;-71
2022/07/25 00:11:47;;;;;;;3.38;3.17;;;24.20;58.90;;;;;;5050922;28;20226;-72
2022/07/25 00:14:12;;;;;;;3.63;3.33;;;24.20;58.90;;;;;;5052993;28;20175;-71
2022/07/25 00:16:38;;;;;;;4.20;3.88;;;24.20;58.90;;;;;;5052774;28;20218;-70
2022/07/25 00:19:04;;;;;;;3.97;3.60;;;24.20;58.90;;;;;;5052062;28;20262;-70
2022/07/25 00:21:30;;;;;;;4.40;4.00;;;24.20;58.90;;;;;;5052881;28;20224;-71
2022/07/25 00:23:55;;;;;;;3.97;3.63;;;24.20;58.80;;;;;;5052366;28;20233;-70
2022/07/25 00:26:21;;;;;;;3.70;3.40;;;24.20;58.80;;;;;;5052105;28;20259;-70
2022/07/25 00:28:46;;;;;;;4.03;3.72;;;24.20;58.90;;;;;;5052403;28;20290;-69
2022/07/25 00:31:12;;;;;;;4.07;3.75;;;24.20;58.90;;;;;;5052591;28;20637;-72
2022/07/25 00:33:39;;;;;;;4.00;3.60;;;24.10;58.80;;;;;;5051942;28;20195;-72
2022/07/25 00:36:05;;;;;;;4.47;3.60;;;24.20;58.90;;;;;;5052526;28;20178;-72
2022/07/25 00:38:31;;;;;;;4.30;3.90;;;24.20;58.90;;;;;;5051863;28;20558;-72
2022/07/25 00:40:56;;;;;;;4.45;4.03;;;24.20;58.90;;;;;;5050447;28;20168;-70
2022/07/25 00:43:22;;;;;;;4.32;4.03;;;24.10;58.80;;;;;;5050792;28;20183;-71
2022/07/25 00:45:47;;;;;;;4.00;3.70;;;24.10;58.80;;;;;;5050767;28;20171;-71
2022/07/25 00:48:13;;;;;;;4.00;3.63;;;24.10;59.40;;;;;;5050294;28;20659;-71
2022/07/25 00:50:38;;;;;;;3.85;3.50;;;24.10;58.80;;;;;;5050715;28;20182;-72
2022/07/25 00:53:04;;;;;;;4.57;4.18;;;24.10;58.80;;;;;;5050866;28;20179;-72
2022/07/25 00:55:30;;;;;;;4.57;4.18;;;24.20;58.90;;;;;;5051782;28;20265;-72
2022/07/25 00:57:56;;;;;;;4.65;4.25;;;24.20;58.80;;;;;;5052076;28;20176;-71
2022/07/25 01:00:21;;;;;;;4.32;3.95;;;24.20;58.90;;;;;;5051626;28;20178;-70
2022/07/25 01:02:47;;;;;;;3.97;3.67;;;24.10;59.50;;;;;;5051895;28;20171;-69
2022/07/25 01:05:12;;;;;;;4.13;3.83;;;24.10;58.80;;;;;;5052207;28;20176;-70
2022/07/25 01:07:38;;;;;;;4.80;4.40;;;24.20;58.80;;;;;;5051361;28;20661;-70
2022/07/25 01:10:04;;;;;;;4.10;3.78;;;24.10;58.80;;;;;;5052270;28;20226;-70
2022/07/25 01:12:30;;;;;;;4.75;4.35;;;24.10;58.80;;;;;;5058901;28;20259;-71
2022/07/25 01:14:56;;;;;;;4.60;4.20;;;24.10;58.80;;;;;;5057812;28;20651;-70
2022/07/25 01:17:22;;;;;;;4.40;4.10;;;24.10;58.80;;;;;;5058531;28;20716;-70
2022/07/25 01:19:50;;;;;;;4.85;4.45;;;24.10;58.80;;;;;;5058477;28;20270;-69
2022/07/25 01:22:15;;;;;;;5.10;4.57;;;24.10;58.80;;;;;;5057646;28;20210;-70
2022/07/25 01:24:41;;;;;;;5.03;4.57;;;24.10;58.80;;;;;;5058653;28;20179;-69
2022/07/25 01:27:06;;;;;;;4.95;4.45;;;24.10;58.80;;;;;;5058539;28;20167;-71
2022/07/25 01:29:32;;;;;;;5.50;5.03;;;24.10;58.80;;;;;;5057887;28;20219;-71
2022/07/25 01:31:57;;;;;;;4.70;4.30;;;24.10;58.80;;;;;;5058343;28;20171;-72
2022/07/25 01:34:23;;;;;;;5.47;4.97;;;24.00;58.80;;;;;;5058490;28;20232;-71
2022/07/25 01:36:48;;;;;;;5.00;4.60;;;24.10;58.80;;;;;;5057523;28;20178;-70
2022/07/25 01:39:14;;;;;;;5.38;4.88;;;24.10;58.70;;;;;;5058711;28;20179;-71
2022/07/25 01:41:39;;;;;;;5.18;4.65;;;24.10;58.80;;;;;;5058372;28;20189;-71
2022/07/25 01:44:05;;;;;;;4.75;4.45;;;24.00;58.80;;;;;;5057909;28;20179;-71
2022/07/25 01:46:31;;;;;;;5.57;5.07;;;24.00;58.80;;;;;;5058541;28;20174;-71
2022/07/25 01:48:56;;;;;;;5.60;4.90;;;24.10;58.80;;;;;;5058137;28;20596;-70
2022/07/25 01:51:22;;;;;;;4.43;4.03;;;24.00;58.80;;;;;;5057570;28;20183;-72
2022/07/25 01:53:47;;;;;;;5.50;5.00;;;24.00;58.80;;;;;;5058357;28;20258;-71
2022/07/25 01:56:13;;;;;;;5.43;5.03;;;24.00;58.80;;;;;;5058353;28;20179;-72
2022/07/25 01:58:38;;;;;;;5.75;5.20;;;24.00;58.90;;;;;;5057553;28;20202;-71
2022/07/25 02:01:04;;;;;;;5.70;5.22;;;24.00;58.80;;;;;;5058203;28;20217;-70
2022/07/25 02:03:29;;;;;;;5.70;5.20;;;24.00;58.90;;;;;;5057966;28;20175;-70
2022/07/25 02:05:56;;;;;;;5.50;5.03;;;24.00;58.80;;;;;;5057852;28;20171;-70
2022/07/25 02:08:22;;;;;;;5.72;4.95;;;24.00;58.80;;;;;;5058144;28;20206;-70
2022/07/25 02:10:47;;;;;;;5.15;4.75;;;24.00;58.80;;;;;;5057689;28;20210;-70
2022/07/25 02:13:13;;;;;;;5.63;5.13;;;24.00;58.80;;;;;;5057899;28;20262;-71
2022/07/25 02:15:39;;;;;;;4.90;4.50;;;24.00;59.50;;;;;;5057951;28;20233;-71
2022/07/25 02:18:04;;;;;;;6.20;5.60;;;24.00;58.80;;;;;;5057395;28;20591;-70
2022/07/25 02:20:30;;;;;;;5.15;4.80;;;24.00;58.80;;;;;;5058039;28;20597;-69
2022/07/25 02:22:55;;;;;;;5.70;5.10;;;24.00;58.90;;;;;;5054020;28;20581;-69
2022/07/25 02:25:21;;;;;;;5.55;5.05;;;23.90;58.90;;;;;;5053072;28;20182;-69
2022/07/25 02:27:47;;;;;;;5.93;5.35;;;24.00;58.90;;;;;;5053838;28;20182;-70
2022/07/25 02:30:12;;;;;;;5.90;5.40;;;24.00;58.90;;;;;;5053586;28;20242;-70
2022/07/25 02:32:38;;;;;;;5.43;5.00;;;24.00;58.90;;;;;;5052869;28;20171;-71
2022/07/25 02:35:05;;;;;;;5.63;5.22;;;23.90;58.80;;;;;;5053563;28;20224;-72
2022/07/25 02:37:30;;;;;;;5.57;5.07;;;24.00;58.90;;;;;;5053913;28;20172;-73
2022/07/25 02:39:56;;;;;;;6.25;5.72;;;24.00;58.90;;;;;;5053004;28;20665;-70
2022/07/25 02:42:21;;;;;;;6.15;5.35;;;24.00;58.90;;;;;;5053627;28;20225;-70
2022/07/25 02:44:47;;;;;;;5.72;5.22;;;23.90;58.90;;;;;;5053463;28;20176;-69
2022/07/25 02:47:12;;;;;;;5.63;5.18;;;23.90;58.90;;;;;;5052776;28;20582;-72
2022/07/25 02:49:38;;;;;;;5.97;5.47;;;24.00;58.90;;;;;;5053173;28;20677;-72
2022/07/25 02:52:04;;;;;;;5.20;4.80;;;23.90;58.90;;;;;;5053187;28;20233;-71
2022/07/25 02:54:29;;;;;;;6.15;5.65;;;24.00;58.90;;;;;;5052891;28;20221;-71
2022/07/25 02:56:55;;;;;;;5.95;5.40;;;23.90;58.80;;;;;;5053109;28;20203;-70
2022/07/25 02:59:20;;;;;;;6.72;5.60;;;24.00;58.90;;;;;;5053068;28;20179;-71
2022/07/25 03:01:46;;;;;;;5.90;5.50;;;24.00;58.90;;;;;;5052348;28;20171;-70
2022/07/25 03:04:11;;;;;;;5.90;5.40;;;23.90;58.80;;;;;;5053067;28;20317;-69
2022/07/25 03:06:37;;;;;;;6.90;5.53;;;23.90;58.90;;;;;;5053160;28;20201;-69
2022/07/25 03:09:03;;;;;;;6.32;5.72;;;23.90;58.90;;;;;;5052448;28;20210;-70
2022/07/25 03:11:28;;;;;;;7.18;6.50;;;23.90;58.90;;;;;;5035237;28;20508;-72
2022/07/25 03:13:54;;;;;;;6.32;5.75;;;23.90;58.90;;;;;;5052247;28;20236;-71
2022/07/25 03:16:20;;;;;;;7.15;6.07;;;23.90;58.90;;;;;;5052557;28;20646;-71
2022/07/25 03:18:45;;;;;;;6.65;5.63;;;23.90;58.80;;;;;;5052611;28;20219;-69
2022/07/25 03:21:11;;;;;;;5.63;5.15;;;24.00;58.90;;;;;;5052415;28;20930;-70
2022/07/25 03:23:37;;;;;;;6.22;5.70;;;23.90;58.90;;;;;;5052709;28;20665;-70
2022/07/25 03:26:02;;;;;;;5.47;4.97;;;23.90;58.80;;;;;;5052635;28;20213;-71
2022/07/25 03:28:28;;;;;;;6.47;5.95;;;23.90;58.90;;;;;;5052069;28;20218;-72
2022/07/25 03:30:53;;;;;;;5.72;5.22;;;23.90;58.90;;;;;;5052441;28;20174;-72
2022/07/25 03:33:19;;;;;;;6.20;5.70;;;23.90;58.90;;;;;;5052174;28;20174;-73
2022/07/25 03:35:45;;;;;;;6.90;6.28;;;23.90;58.90;;;;;;5051214;28;20171;-73
2022/07/25 03:38:10;;;;;;;7.18;6.57;;;23.90;58.90;;;;;;5052639;28;20178;-73
2022/07/25 03:40:36;;;;;;;7.07;6.47;;;23.90;58.90;;;;;;5052811;28;20256;-72
2022/07/25 03:43:01;;;;;;;6.47;5.93;;;23.90;58.90;;;;;;5051682;28;20656;-72
2022/07/25 03:45:27;;;;;;;6.65;6.05;;;23.90;58.90;;;;;;5052328;28;20632;-73
2022/07/25 03:47:53;;;;;;;6.30;5.70;;;23.80;59.60;;;;;;5052140;28;20193;-72
2022/07/25 03:50:18;;;;;;;7.18;6.35;;;23.90;58.90;;;;;;5051453;28;20221;-73
2022/07/25 03:52:44;;;;;;;7.45;6.05;;;23.90;58.90;;;;;;5052091;28;20175;-72
2022/07/25 03:55:10;;;;;;;7.10;6.40;;;23.90;58.90;;;;;;5052168;28;20179;-73
2022/07/25 03:57:35;;;;;;;6.28;5.68;;;23.90;59.00;;;;;;5051583;28;20182;-73
2022/07/25 04:00:01;;;;;;;6.32;5.78;;;23.90;58.90;;;;;;5052035;28;20175;-71
2022/07/25 04:02:27;;;;;;;6.43;5.93;;;23.90;58.90;;;;;;5052081;28;20175;-71
2022/07/25 04:04:52;;;;;;;6.75;6.13;;;23.90;59.00;;;;;;5051404;28;20221;-70
2022/07/25 04:07:18;;;;;;;6.43;5.90;;;23.90;58.90;;;;;;5052222;28;20252;-71
2022/07/25 04:09:43;;;;;;;6.32;5.40;;;23.80;58.90;;;;;;5051910;28;20630;-71
2022/07/25 04:12:09;;;;;;;6.53;5.90;;;23.90;58.90;;;;;;5051147;28;20199;-73
2022/07/25 04:14:34;;;;;;;6.65;6.05;;;23.80;58.90;;;;;;5051982;28;20185;-71
2022/07/25 04:17:00;;;;;;;5.88;5.43;;;23.90;58.90;;;;;;5051644;28;20559;-72
2022/07/25 04:19:25;;;;;;;6.65;6.15;;;23.80;59.00;;;;;;5051080;28;20582;-71
2022/07/25 04:21:51;;;;;;;6.70;6.20;;;23.90;59.00;;;;;;5051679;28;20232;-69
2022/07/25 04:24:16;;;;;;;6.32;5.60;;;23.90;59.00;;;;;;5051130;28;20206;-72
2022/07/25 04:26:42;;;;;;;6.75;6.10;;;23.90;59.00;;;;;;5051754;28;20182;-70
2022/07/25 04:29:07;;;;;;;6.45;5.95;;;23.90;58.90;;;;;;5051653;28;20206;-72
2022/07/25 04:31:33;;;;;;;7.72;6.25;;;23.90;59.00;;;;;;5051008;28;20536;-73
2022/07/25 04:33:58;;;;;;;7.10;6.40;;;23.80;59.00;;;;;;5051510;28;20536;-72
2022/07/25 04:36:25;;;;;;;7.10;6.50;;;23.80;59.00;;;;;;5051736;28;20620;-73
2022/07/25 04:38:51;;;;;;;6.72;6.18;;;23.90;59.00;;;;;;5050865;28;20175;-71
2022/07/25 04:41:16;;;;;;;6.65;6.05;;;23.90;59.00;;;;;;5051508;28;20182;-72
2022/07/25 04:43:42;;;;;;;7.10;6.40;;;23.90;59.00;;;;;;5051263;28;20183;-72
2022/07/25 04:46:08;;;;;;;8.10;5.68;;;23.90;59.10;;;;;;5050402;28;20598;-72
2022/07/25 04:48:33;;;;;;;7.18;6.47;;;23.90;59.10;;;;;;5051272;28;20344;-73
2022/07/25 04:50:59;;;;;;;7.18;6.47;;;23.90;59.10;;;;;;5051495;28;20308;-73
2022/07/25 04:53:24;;;;;;;6.47;5.85;;;23.90;59.10;;;;;;5050829;28;20175;-73
2022/07/25 04:55:50;;;;;;;7.07;6.47;;;23.90;59.10;;;;;;5051062;28;20626;-72
2022/07/25 04:58:15;;;;;;;7.15;6.55;;;23.90;59.10;;;;;;5051383;28;20171;-71
2022/07/25 05:00:41;;;;;;;7.45;6.82;;;23.90;59.10;;;;;;5050474;28;20576;-70
2022/07/25 05:03:06;;;;;;;6.63;6.03;;;23.90;59.10;;;;;;5051166;28;20703;-71
2022/07/25 05:05:32;;;;;;;6.30;5.68;;;23.90;59.10;;;;;;5051475;28;20649;-70
2022/07/25 05:07:58;;;;;;;7.38;6.78;;;23.90;59.10;;;;;;5050346;28;20609;-70
2022/07/25 05:10:24;;;;;;;6.80;6.22;;;23.90;59.20;;;;;;5050970;28;20215;-72
2022/07/25 05:12:50;;;;;;;6.43;5.90;;;23.90;59.20;;;;;;5051090;28;20171;-71
2022/07/25 05:15:15;;;;;;;6.60;6.10;;;23.90;59.30;;;;;;5050371;28;20171;-72
2022/07/25 05:17:41;;;;;;;7.07;6.38;;;23.90;59.20;;;;;;5050904;28;20171;-71
2022/07/25 05:20:07;;;;;;;7.93;7.22;;;23.90;59.20;;;;;;5051116;28;20240;-70
2022/07/25 05:22:33;;;;;;;7.32;6.70;;;23.90;59.20;;;;;;5050337;28;20223;-70
2022/07/25 05:25:01;;;;;;;6.78;6.07;;;23.90;59.20;;;;;;5051010;28;20258;-70
2022/07/25 05:27:26;;;;;;;6.50;5.90;;;23.90;59.20;;;;;;5050803;28;20210;-70
2022/07/25 05:29:52;;;;;;;7.05;6.28;;;24.00;59.30;;;;;;5050428;28;20211;-71
2022/07/25 05:32:17;;;;;;;7.10;6.43;;;23.90;59.20;;;;;;5051335;28;20229;-73
2022/07/25 05:34:43;;;;;;;6.82;6.25;;;23.90;59.20;;;;;;5050452;28;20652;-71
2022/07/25 05:37:08;;;;;;;6.50;6.00;;;23.90;59.10;;;;;;5051060;28;20175;-72
2022/07/25 05:39:36;;;;;;;7.30;6.35;;;24.00;59.20;;;;;;5051057;28;20500;-71
2022/07/25 05:42:01;;;;;;;7.00;6.40;;;23.90;59.20;;;;;;5050099;28;20633;-71
2022/07/25 05:44:27;;;;;;;6.90;6.20;;;23.90;59.20;;;;;;5050885;28;20187;-71
2022/07/25 05:46:52;;;;;;;6.82;6.13;;;23.90;59.30;;;;;;5050962;28;20172;-70
2022/07/25 05:49:18;;;;;;;6.30;5.72;;;23.90;59.90;;;;;;5050104;28;20572;-72
2022/07/25 05:51:43;;;;;;;6.90;6.30;;;24.00;59.30;;;;;;5050895;28;20170;-72
2022/07/25 05:54:09;;;;;;;7.85;7.07;;;24.00;59.30;;;;;;5050997;28;20225;-72
2022/07/25 05:56:34;;;;;;;7.13;6.53;;;24.00;59.30;;;;;;5050220;28;20297;-72
2022/07/25 05:59:00;;;;;;;6.70;6.18;;;24.00;59.30;;;;;;5053992;28;20215;-70
2022/07/25 06:01:25;;;;;;;7.45;6.65;;;24.00;59.20;;;;;;5054638;28;20292;-71
2022/07/25 06:03:51;;;;;;;7.45;6.80;;;24.00;59.20;;;;;;5053951;28;20638;-69
2022/07/25 06:06:16;;;;;;;7.63;6.80;;;24.00;59.20;;;;;;5054772;28;20258;-70
2022/07/25 06:08:42;;;;;;;7.13;6.53;;;24.00;59.20;;;;;;5054415;28;20634;-69
2022/07/25 06:11:08;;;;;;;7.28;6.65;;;24.00;59.20;;;;;;5054291;28;20183;-69
2022/07/25 06:13:34;;;;;;;8.68;7.75;;;24.00;59.30;;;;;;5054664;28;20225;-70
2022/07/25 06:15:59;;;;;;;10.93;6.63;;;24.10;59.40;;;;;;5054333;28;20267;-69
2022/07/25 06:18:25;;;;;;;7.45;6.60;;;24.00;59.20;;;;;;5053857;28;20174;-69
2022/07/25 06:20:51;;;;;;;9.48;6.60;;;24.00;59.30;;;;;;5054364;28;20167;-68
2022/07/25 06:23:16;;;;;;;10.23;7.20;;;24.00;59.20;;;;;;5053939;28;20227;-69
2022/07/25 06:25:42;;;;;;;8.07;7.25;;;24.00;59.40;;;;;;5053509;28;20174;-68
2022/07/25 06:28:07;;;;;;;10.15;7.20;;;24.10;59.90;;;;;;5054207;28;20293;-70
2022/07/25 06:30:33;;;;;;;8.63;7.00;;;24.10;59.90;;;;;;5053815;28;20229;-68
2022/07/25 06:32:59;;;;;;;9.45;6.47;;;24.10;60.10;;;;;;5053402;28;20194;-71
2022/07/25 06:35:24;;;;;;;8.93;6.65;;;24.20;59.90;;;;;;5053993;28;20183;-72
2022/07/25 06:37:50;;;;;;;12.60;7.20;;;24.10;59.80;;;;;;5052933;28;20224;-71
2022/07/25 06:40:15;;;;;;;9.93;6.63;;;24.20;59.90;;;;;;5054038;28;20182;-71
2022/07/25 06:42:41;;;;;;;7.15;6.47;;;24.20;59.90;;;;;;5053791;28;20250;-70
2022/07/25 06:45:11;;;;;;;7.57;6.35;;;24.20;59.80;;;;;;5053262;28;20183;-69
2022/07/25 06:47:37;;;;;;;9.75;6.57;;;24.20;59.80;;;;;;5053868;28;20549;-68
2022/07/25 06:50:07;;;;;;;9.07;6.20;;;24.30;60.00;;;;;;5053906;28;20242;-70
2022/07/25 06:52:33;;;;;;;11.82;7.55;;;24.30;60.00;;;;;;5053006;28;20654;-70
2022/07/25 06:54:59;;;;;;;7.07;6.38;;;24.30;60.00;;;;;;5053555;28;20197;-70
2022/07/25 06:57:24;;;;;;;8.15;6.55;;;24.30;59.90;;;;;;5053486;28;20172;-71
2022/07/25 06:59:50;;;;;;;8.60;7.03;;;24.30;60.00;;;;;;5052540;28;20199;-70
2022/07/25 07:02:15;;;;;;;13.38;6.28;;;24.30;60.00;;;;;;5053664;28;20575;-69
2022/07/25 07:04:41;;;;;;;12.50;7.07;;;24.20;59.90;;;;;;5053303;28;20261;-68
2022/07/25 07:07:06;;;;;;;7.28;6.30;;;24.30;60.00;;;;;;5052676;28;20179;-69
2022/07/25 07:09:32;;;;;;;12.90;7.22;;;24.30;60.00;;;;;;5035085;28;20299;-71
2022/07/25 07:11:57;;;;;;;7.80;5.88;;;24.30;59.90;;;;;;5052988;28;20275;-71
2022/07/25 07:14:23;;;;;;;7.22;6.40;;;24.30;59.90;;;;;;5052590;28;20258;-69
2022/07/25 07:16:48;;;;;;;9.00;6.30;;;24.30;59.80;;;;;;5053155;28;20194;-69
2022/07/25 07:19:14;;;;;;;6.90;6.03;;;24.30;59.70;;;;;;5053355;28;20179;-70
2022/07/25 07:21:41;;;;;;;7.85;6.05;;;24.30;59.70;;;;;;5052041;28;20199;-69
2022/07/25 07:24:06;;;;;;;7.05;6.38;;;24.30;59.60;;;;;;5052705;28;20242;-70
2022/07/25 07:26:32;;;;;;;6.20;5.53;;;24.30;59.60;;;;;;5052964;28;20171;-69
2022/07/25 07:28:58;;;;;;;7.32;6.50;;;24.30;59.50;;;;;;5051900;28;20237;-70
2022/07/25 07:31:23;;;;;;;6.60;5.93;;;24.30;59.40;;;;;;5052873;28;20199;-72
2022/07/25 07:33:49;;;;;;;10.98;6.80;;;24.30;59.50;;;;;;5052684;28;20174;-71
2022/07/25 07:36:15;;;;;;;7.60;6.22;;;24.30;59.40;;;;;;5052058;28;20175;-71
2022/07/25 07:38:40;;;;;;;8.27;6.05;;;24.30;59.40;;;;;;5052606;28;20176;-70
2022/07/25 07:41:06;;;;;;;6.68;5.97;;;24.30;59.30;;;;;;5052132;28;20664;-70
2022/07/25 07:43:32;;;;;;;7.88;5.95;;;24.30;59.40;;;;;;5034603;28;20308;-71
2022/07/25 07:46:00;;;;;;;6.32;5.72;;;24.30;59.30;;;;;;5052342;28;20286;-71
2022/07/25 07:48:29;;;;;;;7.43;6.30;;;24.30;59.30;;;;;;5051800;28;20179;-72
2022/07/25 07:50:55;;;;;;;9.48;6.25;;;24.30;59.30;;;;;;5052339;28;20236;-72
2022/07/25 07:53:21;;;;;;;6.45;5.80;;;24.30;59.30;;;;;;5052047;28;20187;-72
2022/07/25 07:55:54;;;;;;;6.95;5.85;;;24.30;59.30;;;;;;5051270;28;20207;-73
2022/07/25 07:58:19;;;;;;;7.43;6.38;;;24.30;59.20;;;;;;5052364;28;20240;-71
2022/07/25 08:00:47;;;;;;;6.22;5.45;;;24.30;59.20;;;;;;5052131;28;20171;-70
2022/07/25 08:03:16;;;;;;;7.78;6.28;;;24.30;59.20;;;;;;5051290;28;20183;-70
2022/07/25 08:05:43;;;;;;;6.95;5.97;;;24.40;59.30;;;;;;5051938;28;20287;-71
2022/07/25 08:08:09;;;;;;;6.20;5.70;;;24.30;59.20;;;;;;5051963;28;20187;-69
2022/07/25 08:10:36;;;;;;;6.15;5.55;;;24.30;59.20;;;;;;5051403;28;20341;-72
2022/07/25 08:13:11;;;;;;;7.35;6.18;;;24.30;59.20;;;;;;5052132;28;20179;-72
2022/07/25 08:15:37;;;;;;;6.28;5.60;;;24.40;59.20;;;;;;5052380;28;20182;-70
2022/07/25 08:18:03;;;;;;;5.93;5.43;;;24.50;59.20;;;;;;5051556;28;20231;-70
2022/07/25 08:20:29;;;;;;;6.93;5.65;;;24.40;59.10;;;;;;5051507;28;20183;-70
2022/07/25 08:22:54;;;;;;;6.20;5.65;;;24.40;59.00;;;;;;5051800;28;20242;-69
2022/07/25 08:25:20;;;;;;;8.88;6.05;;;24.40;59.00;;;;;;5051384;28;20510;-70
2022/07/25 08:27:46;;;;;;;6.63;5.90;;;24.40;59.10;;;;;;5052163;28;20179;-70
2022/07/25 08:30:12;;;;;;;6.40;5.80;;;24.30;59.10;;;;;;5052232;28;20272;-70
2022/07/25 08:32:58;;;;;;;5.55;5.05;;;24.30;59.10;;;;;;5051132;28;20167;-70
2022/07/25 08:35:24;;;;;;;8.00;5.28;;;24.30;59.10;;;;;;5051996;28;20309;-72
2022/07/25 08:37:50;;;;;;;7.32;5.28;;;24.40;59.10;;;;;;5051332;28;20176;-70
2022/07/25 08:40:16;;;;;;;5.95;5.18;;;24.40;59.00;;;;;;5052034;28;20190;-70
2022/07/25 08:42:42;;;;;;;5.97;5.38;;;24.50;58.90;;;;;;5051780;28;20186;-70
2022/07/25 08:45:09;;;;;;;5.97;5.40;;;24.50;58.70;;;;;;5051151;28;20175;-70
2022/07/25 08:47:35;;;;;;;5.53;5.03;;;24.60;58.60;;;;;;5052058;28;20180;-71
2022/07/25 08:50:04;;;;;;;6.00;5.30;;;24.60;58.50;;;;;;5051710;28;20207;-70
2022/07/25 08:52:34;;;;;;;5.63;5.13;;;24.60;58.50;;;;;;5051477;28;20254;-71
2022/07/25 08:55:06;;;;;;;5.80;5.03;;;24.60;58.50;;;;;;5051772;28;20189;-71
2022/07/25 08:57:32;;;;;;;5.00;4.60;;;24.60;58.40;;;;;;5051852;28;20167;-71
2022/07/25 08:59:58;;;;;;;4.82;4.43;;;24.60;58.30;;;;;;5051024;28;20179;-69
2022/07/25 09:02:27;;;;;;;5.18;4.50;;;24.70;58.30;;;;;;5051798;28;20185;-69
2022/07/25 09:04:53;;;;;;;5.28;4.75;;;24.60;58.30;;;;;;5051910;28;20179;-68
2022/07/25 09:07:36;;;;;;;5.07;4.68;;;24.60;58.30;;;;;;5050958;28;20179;-69
2022/07/25 09:10:12;;;;;;;4.97;4.57;;;24.70;58.30;;;;;;5051741;28;20614;-69
2022/07/25 09:12:38;;;;;;;5.30;4.80;;;24.70;58.30;;;;;;5051075;28;20191;-70
2022/07/25 09:15:04;;;;;;;4.95;4.47;;;24.70;58.30;;;;;;5051662;28;20171;-71
2022/07/25 09:17:30;;;;;;;4.63;4.25;;;24.70;58.20;;;;;;5051534;28;20182;-71
2022/07/25 09:19:55;;;;;;;4.93;4.53;;;24.80;58.20;;;;;;5033181;28;20175;-68
2022/07/25 09:22:21;;;;;;;4.50;4.10;;;24.80;58.20;;;;;;5051368;28;20222;-68
2022/07/25 09:24:47;;;;;;;4.85;4.45;;;24.80;58.20;;;;;;5051545;28;20167;-68
2022/07/25 09:27:13;;;;;;;4.63;4.03;;;24.80;58.30;;;;;;5050911;28;20223;-70
2022/07/25 09:29:39;;;;;;;4.47;4.13;;;24.80;58.10;;;;;;5051346;28;20207;-70
2022/07/25 09:32:18;;;;;;;5.00;4.15;;;24.90;58.00;;;;;;5053233;28;20174;-69
2022/07/25 09:34:46;;;;;;;5.35;4.45;;;24.80;58.00;;;;;;5054879;28;20174;-68
2022/07/25 09:37:13;;;;;;;4.60;3.95;;;24.90;58.10;;;;;;5055325;28;20171;-70
2022/07/25 09:39:49;;;;;;;4.47;4.07;;;24.80;58.10;;;;;;5055273;28;20632;-69
2022/07/25 09:42:24;;;;;;;7.78;4.38;;;24.80;58.20;;;;;;5054613;28;20198;-68
2022/07/25 09:45:16;;;;;;;5.03;4.00;;;24.80;58.30;;;;;;5055523;28;20171;-68
2022/07/25 09:48:02;;;;;;;4.28;3.85;;;24.80;58.40;;;;;;5050059;28;20194;-69
2022/07/25 09:50:28;;;;;;;3.40;3.10;;;24.70;58.30;;;;;;5055031;28;20291;-70
2022/07/25 09:52:59;;;;;;;4.10;3.10;;;24.80;58.20;;;;;;5055076;28;20171;-69
2022/07/25 09:55:25;;;;;;;3.95;3.50;;;24.80;58.00;;;;;;5054423;28;20183;-70
2022/07/25 09:57:53;;;;;;;6.65;2.78;;;24.80;58.00;;;;;;5054918;28;20171;-70
2022/07/25 10:00:22;;;;;;;3.15;2.95;;;24.80;57.90;;;;;;5054854;28;20245;-68
2022/07/25 10:02:51;;;;;;;2.40;2.22;;;24.80;57.90;;;;;;5053831;28;20725;-68
2022/07/25 10:05:56;;;;;;;2.72;2.53;;;24.80;57.90;;;;;;5055098;28;20186;-69
2022/07/25 10:08:22;;;;;;;3.65;2.38;;;24.90;57.80;;;;;;5039869;28;20261;-69
2022/07/25 10:10:47;;;;;;;3.53;2.25;;;24.90;57.80;;;;;;5053964;28;20273;-68
2022/07/25 10:13:15;;;;;;;2.38;2.15;;;24.90;57.70;;;;;;5054547;28;20254;-65
2022/07/25 10:15:57;;;;;;;3.05;2.50;;;25.00;57.70;;;;;;5054240;28;20182;-67
2022/07/25 10:18:25;;;;;;;2.67;2.25;;;25.00;58.50;;;;;;5054629;28;20175;-67
2022/07/25 10:20:52;;;;;;;2.58;2.20;;;25.00;58.00;;;;;;5054289;28;20179;-66
2022/07/25 10:23:18;;;;;;;3.22;2.00;;;24.90;58.00;;;;;;5053405;28;20219;-66
2022/07/25 10:25:44;;;;;;;3.95;2.13;;;25.00;58.10;;;;;;5054307;28;20201;-66
2022/07/25 10:28:11;;;;;;;2.67;1.67;;;25.00;58.10;;;;;;5054243;28;20246;-67
2022/07/25 10:30:38;;;;;;;7.03;1.90;;;25.00;58.10;;;;;;5053715;28;20219;-67
2022/07/25 10:33:11;;;;;;;3.45;1.98;;;25.00;58.00;;;;;;5054272;28;20171;-68
2022/07/25 10:35:37;;;;;;;3.17;1.75;;;25.00;58.00;;;;;;5054301;28;20183;-67
2022/07/25 10:38:03;;;;;;;4.95;2.00;;;25.10;58.00;;;;;;5053273;28;20179;-68
2022/07/25 10:40:42;;;;;;;2.30;2.03;;;25.10;58.00;;;;;;5054086;28;20181;-67
2022/07/25 10:43:11;;;;;;;4.30;2.30;;;25.10;57.90;;;;;;5053342;28;20656;-70
2022/07/25 10:45:38;;;;;;;2.25;2.05;;;25.10;57.90;;;;;;5053577;28;20183;-68
2022/07/25 10:48:08;;;;;;;3.90;2.20;;;25.20;57.80;;;;;;5035974;28;20634;-68
2022/07/25 10:50:34;;;;;;;1.80;1.60;;;25.20;57.70;;;;;;5053995;28;20242;-68
2022/07/25 10:53:00;;;;;;;4.28;2.05;;;25.20;58.40;;;;;;5052991;28;20660;-68
2022/07/25 10:55:27;;;;;;;5.20;1.88;;;25.20;57.70;;;;;;5053853;28;20271;-69
2022/07/25 10:58:05;;;;;;;1.92;1.65;;;25.20;57.80;;;;;;5053998;28;20181;-68
2022/07/25 11:00:31;;;;;;;4.03;2.05;;;25.20;57.70;;;;;;5054139;28;20674;-68
2022/07/25 11:02:56;;;;;;;3.33;2.00;;;25.30;57.80;;;;;;5035915;28;20539;-67
2022/07/25 11:05:22;;;;;;;4.30;2.13;;;25.30;57.80;;;;;;5053227;28;20298;-68
2022/07/25 11:07:51;;;;;;;5.65;2.58;;;25.30;57.90;;;;;;5036299;28;20171;-69
2022/07/25 11:10:24;;;;;;;4.50;2.15;;;25.40;58.70;;;;;;5053910;28;20272;-69
2022/07/25 11:12:49;;;;;;;4.18;2.00;;;25.40;58.40;;;;;;5053200;28;20247;-69
2022/07/25 11:15:15;;;;;;;4.25;2.22;;;25.40;58.40;;;;;;5036039;28;20265;-69
2022/07/25 11:17:48;;;;;;;6.15;1.98;;;25.40;58.70;;;;;;5053620;28;20251;-70
2022/07/25 11:20:15;;;;;;;2.10;1.90;;;25.40;58.30;;;;;;5052814;28;20262;-68
2022/07/25 11:22:40;;;;;;;4.88;2.17;;;25.40;58.40;;;;;;5053211;28;20724;-68
2022/07/25 11:25:15;;;;;;;3.00;2.00;;;25.40;58.50;;;;;;5053375;28;20179;-67
2022/07/25 11:27:41;;;;;;;7.60;2.20;;;25.40;58.00;;;;;;5052460;28;20182;-67
2022/07/25 11:30:14;;;;;;;4.28;2.00;;;25.40;58.00;;;;;;5053273;28;20211;-68
2022/07/25 11:32:41;;;;;;;3.15;1.80;;;25.40;58.00;;;;;;5052928;28;20212;-69
2022/07/25 11:35:07;;;;;;;6.20;2.35;;;25.40;58.00;;;;;;5052405;28;20187;-69
2022/07/25 11:37:33;;;;;;;5.93;2.35;;;25.50;57.90;;;;;;5035709;28;20172;-69
2022/07/25 11:39:59;;;;;;;4.03;1.98;;;25.50;57.90;;;;;;5018820;28;20183;-67
2022/07/25 11:42:26;;;;;;;3.15;2.10;;;25.60;58.00;;;;;;5034696;28;20171;-67
2022/07/25 11:44:53;;;;;;;6.38;2.40;;;25.60;58.00;;;;;;5052821;28;20175;-67
2022/07/25 11:47:26;;;;;;;5.70;2.50;;;25.50;58.00;;;;;;5052251;28;20168;-68
2022/07/25 11:49:53;;;;;;;4.00;2.17;;;25.50;58.00;;;;;;5052744;28;20211;-68
2022/07/25 11:52:20;;;;;;;4.78;2.38;;;25.40;58.00;;;;;;5052814;28;20569;-67
2022/07/25 11:54:56;;;;;;;5.63;2.25;;;25.40;58.10;;;;;;5051317;28;20178;-69
2022/07/25 11:57:26;;;;;;;9.30;2.67;;;25.40;58.30;;;;;;5052645;28;20201;-69
2022/07/25 11:59:52;;;;;;;10.15;2.83;;;25.40;58.40;;;;;;5052550;28;20181;-69
2022/07/25 12:02:25;;;;;;;8.32;2.47;;;25.40;58.50;;;;;;5051963;28;20217;-68
2022/07/25 12:04:58;;;;;;;5.63;2.58;;;25.40;58.60;;;;;;5052515;28;20187;-66
2022/07/25 12:07:46;;;;;;;5.80;2.78;;;25.40;58.60;;;;;;5052544;28;20181;-67
2022/07/25 12:10:22;;;;;;;11.52;2.97;;;25.40;58.60;;;;;;5051622;28;20237;-67
2022/07/25 12:12:51;;;;;;;6.45;2.20;;;25.30;58.70;;;;;;5052198;28;20202;-67
2022/07/25 12:15:29;;;;;;;7.45;2.47;;;25.30;58.80;;;;;;5052278;28;20654;-67
2022/07/25 12:17:55;;;;;;;5.55;2.72;;;25.30;58.60;;;;;;5052198;28;20182;-68
2022/07/25 12:20:22;;;;;;;6.25;2.55;;;25.40;58.40;;;;;;5052180;28;20258;-67
2022/07/25 12:22:49;;;;;;;6.00;2.28;;;25.40;58.10;;;;;;5050970;28;20250;-66
2022/07/25 12:25:14;;;;;;;5.70;2.28;;;25.40;57.80;;;;;;5052353;28;20181;-67
2022/07/25 12:27:40;;;;;;;4.30;2.10;;;25.30;57.60;;;;;;5052056;28;20255;-67
2022/07/25 12:30:06;;;;;;;4.10;2.30;;;25.40;57.40;;;;;;5051452;28;20689;-67
2022/07/25 12:32:32;;;;;;;5.80;2.30;;;25.40;57.30;;;;;;5052249;28;20177;-68
2022/07/25 12:34:57;;;;;;;3.22;2.17;;;25.40;57.30;;;;;;5051731;28;20183;-67
2022/07/25 12:37:27;;;;;;;3.05;2.33;;;25.40;57.20;;;;;;5051328;28;20606;-68
2022/07/25 12:39:52;;;;;;;9.00;2.80;;;25.40;57.10;;;;;;5033982;28;20656;-69
2022/07/25 12:42:18;;;;;;;5.00;1.90;;;25.40;57.00;;;;;;5051970;28;20179;-68
2022/07/25 12:44:44;;;;;;;4.65;1.95;;;25.40;57.00;;;;;;5051328;28;20186;-67